Time;durP1;ratioP1;P1;durP2;ratioP2;P2;SDS_P1;SDS_P2;PMS_P1;PMS_P2;Temp;Humidity;BMP_temperature;BMP_pressure;BME280_temperature;BME280_humidity;BME280_pressure;Samples;Min_cycle;Max_cycle;Signal;HPM_P1;HPM_P2
2021/01/21 00:00:17;;;;;;;7.87;6.78;;;-4.00;1.40;;;-3.20;100.00;94162.70;622835;224;32039;-72
2021/01/21 00:02:46;;;;;;;9.60;7.25;;;-4.10;1.40;;;-3.14;100.00;94159.50;636870;220;31790;-73
2021/01/21 00:05:15;;;;;;;7.97;6.53;;;-4.10;1.40;;;-3.16;100.00;94150.06;651030;216;23452;-72
2021/01/21 00:07:44;;;;;;;6.53;5.20;;;-4.00;1.40;;;-3.08;100.00;94140.47;623815;225;31871;-72
2021/01/21 00:12:51;;;;;;;5.90;5.00;;;-3.80;1.40;;;-2.81;98.18;94132.44;642911;219;32711;-72
2021/01/21 00:15:20;;;;;;;4.57;4.18;;;-3.80;1.40;;;-2.81;99.33;94128.41;635311;220;32070;-72
2021/01/21 00:17:49;;;;;;;4.87;3.90;;;-3.70;1.40;;;-2.83;98.95;94133.00;646979;220;24038;-73
2021/01/21 00:20:18;;;;;;;4.40;3.70;;;-3.70;1.40;;;-2.86;95.52;94140.30;633881;220;31855;-71
2021/01/21 00:22:47;;;;;;;4.17;3.83;;;-3.90;1.40;;;-2.94;91.50;94140.77;641544;221;23502;-73
2021/01/21 00:25:16;;;;;;;3.50;3.15;;;-4.40;1.40;;;-3.23;91.04;94136.97;636225;220;31927;-72
2021/01/21 00:27:45;;;;;;;5.82;4.15;;;-4.50;1.40;;;-3.34;94.61;94128.70;635422;221;31724;-71
2021/01/21 00:30:16;;;;;;;5.53;5.03;;;-4.40;1.40;;;-3.33;97.60;94121.72;643855;220;23484;-72
2021/01/21 00:32:45;;;;;;;5.35;4.60;;;-4.20;1.40;;;-3.28;97.88;94116.89;636430;220;31862;-72
2021/01/21 00:35:14;;;;;;;5.50;5.00;;;-4.10;1.40;;;-3.26;98.60;94104.20;639630;220;23499;-73
2021/01/21 00:37:43;;;;;;;5.65;4.87;;;-4.10;1.40;;;-3.17;98.35;94108.98;635407;221;31792;-71
2021/01/21 00:40:13;;;;;;;4.62;4.05;;;-4.00;1.40;;;-3.02;98.66;94108.08;638332;220;32142;-72
2021/01/21 00:42:42;;;;;;;4.63;4.23;;;-3.90;1.40;;;-2.92;100.00;94112.90;639099;221;23527;-72
2021/01/21 00:45:11;;;;;;;4.28;3.80;;;-3.60;1.40;;;-2.72;100.00;94106.12;635934;220;31851;-72
2021/01/21 00:47:40;;;;;;;4.50;4.10;;;-3.50;1.40;;;-2.60;100.00;94105.38;640199;220;28788;-73
2021/01/21 00:50:10;;;;;;;4.62;4.22;;;-3.30;1.40;;;-2.42;97.87;94102.50;634708;220;31782;-72
2021/01/21 00:52:39;;;;;;;6.47;4.50;;;-3.20;1.40;;;-2.42;98.38;94104.89;639900;221;23486;-72
2021/01/21 00:55:09;;;;;;;4.93;4.22;;;-3.30;1.40;;;-2.48;99.68;94112.13;635347;220;32070;-72
2021/01/21 00:57:38;;;;;;;5.20;4.47;;;-3.20;1.40;;;-2.51;99.28;94113.44;655911;216;23450;-72
2021/01/21 01:00:09;;;;;;;4.70;4.22;;;-3.30;1.40;;;-2.55;100.00;94108.27;650313;216;31678;-73
2021/01/21 01:02:39;;;;;;;5.60;4.63;;;-3.30;1.40;;;-2.64;100.00;94111.84;643808;220;23475;-73
2021/01/21 01:05:09;;;;;;;5.90;5.07;;;-3.40;1.40;;;-2.70;99.53;94101.14;630432;220;31870;-72
2021/01/21 01:07:38;;;;;;;6.33;5.73;;;-3.50;1.40;;;-2.68;100.00;94088.48;647155;221;23467;-72
2021/01/21 01:10:08;;;;;;;6.95;5.30;;;-3.40;1.40;;;-2.61;100.00;94075.37;634875;220;31778;-72
2021/01/21 01:12:37;;;;;;;6.85;5.57;;;-3.40;1.40;;;-2.54;98.42;94068.33;634486;220;31878;-73
2021/01/21 01:15:07;;;;;;;6.37;5.10;;;-3.50;1.40;;;-2.58;99.23;94072.50;640385;220;23503;-70
2021/01/21 01:17:36;;;;;;;7.15;5.50;;;-3.40;1.40;;;-2.58;99.52;94074.52;637554;220;31901;-71
2021/01/21 01:20:07;;;;;;;6.87;6.18;;;-3.40;1.40;;;-2.52;99.43;94075.77;633969;221;31833;-73
2021/01/21 01:22:36;;;;;;;6.70;5.57;;;-3.40;1.40;;;-2.56;100.00;94066.83;639913;218;24512;-73
2021/01/21 01:25:05;;;;;;;6.82;5.70;;;-3.40;1.40;;;-2.52;99.83;94068.70;635073;220;31939;-73
2021/01/21 01:27:34;;;;;;;7.83;5.73;;;-3.50;1.40;;;-2.55;99.66;94059.52;644954;220;23482;-73
2021/01/21 01:30:03;;;;;;;6.12;5.22;;;-3.50;1.40;;;-2.43;98.94;94064.41;634923;221;31683;-71
2021/01/21 01:32:32;;;;;;;9.73;5.80;;;-3.40;1.40;;;-2.41;100.00;94063.06;640763;221;23501;-73
2021/01/21 01:35:01;;;;;;;6.05;5.43;;;-3.30;1.40;;;-2.34;98.35;94074.88;636766;220;32357;-73
2021/01/21 01:37:31;;;;;;;5.80;5.30;;;-3.30;1.40;;;-2.45;97.54;94081.53;634261;220;31771;-72
2021/01/21 01:40:00;;;;;;;7.60;5.60;;;-3.40;1.40;;;-2.61;98.57;94086.19;641547;221;23509;-72
2021/01/21 01:42:29;;;;;;;5.68;5.07;;;-3.50;1.40;;;-2.49;97.61;94099.87;638714;221;31758;-71
2021/01/21 01:44:58;;;;;;;5.13;4.83;;;-3.40;1.40;;;-2.62;99.10;94105.70;641404;220;23490;-71
2021/01/21 01:47:27;;;;;;;4.97;4.47;;;-3.40;1.40;;;-2.62;98.35;94103.74;637152;221;31852;-71
2021/01/21 01:49:56;;;;;;;6.10;4.83;;;-3.50;1.40;;;-2.70;99.26;94108.58;641617;220;25608;-73
2021/01/21 01:52:28;;;;;;;5.78;4.65;;;-3.60;1.40;;;-2.69;100.00;94107.04;632586;221;31902;-72
2021/01/21 01:54:57;;;;;;;6.10;5.00;;;-3.50;1.40;;;-2.55;99.64;94112.09;633777;220;31985;-73
2021/01/21 01:57:26;;;;;;;6.40;5.83;;;-3.50;1.40;;;-2.49;100.00;94122.36;639632;220;23535;-73
2021/01/21 01:59:55;;;;;;;5.85;5.25;;;-3.30;1.40;;;-2.30;98.60;94120.05;632694;220;31953;-73
2021/01/21 02:02:24;;;;;;;4.97;4.57;;;-3.20;1.40;;;-2.09;99.03;94124.11;642346;220;23484;-72
2021/01/21 02:04:53;;;;;;;5.30;4.80;;;-2.90;1.40;;;-2.10;98.64;94118.05;636501;221;31978;-72
2021/01/21 02:07:22;;;;;;;6.70;4.90;;;-2.90;1.40;;;-2.18;99.46;94124.08;641873;221;23510;-73
2021/01/21 02:09:51;;;;;;;5.40;4.18;;;-3.00;1.40;;;-2.18;99.08;94126.09;637356;220;31944;-73
2021/01/21 02:12:56;;;;;;;9.10;4.97;;;-3.00;1.40;;;-2.26;100.00;94122.15;642952;221;23482;-73
2021/01/21 02:15:51;;;;;;;5.68;5.07;;;-3.10;1.40;;;-2.12;98.64;94118.84;646025;216;32192;-73
2021/01/21 02:18:24;;;;;;;5.60;5.10;;;-3.10;1.40;;;-2.17;99.59;94119.09;644819;220;23511;-72
2021/01/21 02:21:22;;;;;;;5.55;4.40;;;-3.10;1.40;;;-2.22;100.00;94121.02;636345;220;31773;-73
2021/01/21 02:24:18;;;;;;;6.40;4.75;;;-3.10;1.40;;;-2.22;100.00;94116.57;645418;216;42202;-72
2021/01/21 02:26:50;;;;;;;5.30;4.80;;;-3.00;1.40;;;-2.25;100.00;94104.48;641904;220;26910;-72
2021/01/21 02:29:26;;;;;;;5.35;4.72;;;-3.00;1.40;;;-2.21;100.00;94091.30;637911;220;31039;-73
2021/01/21 02:32:21;;;;;;;4.87;4.40;;;-2.80;1.40;;;-2.13;100.00;94092.30;652720;216;23456;-72
2021/01/21 02:35:01;;;;;;;5.30;4.80;;;-2.80;1.40;;;-2.02;100.00;94091.58;646147;216;32205;-72
2021/01/21 02:37:30;;;;;;;6.50;5.07;;;-2.80;1.40;;;-1.90;100.00;94091.35;635236;221;33583;-72
2021/01/21 02:39:59;;;;;;;5.70;4.90;;;-2.70;1.40;;;-1.86;100.00;94087.30;635697;221;42462;-72
2021/01/21 02:42:28;;;;;;;5.40;4.90;;;-2.60;1.40;;;-1.82;100.00;94082.59;638891;221;25132;-70
2021/01/21 02:44:57;;;;;;;6.45;4.68;;;-2.60;1.40;;;-1.77;100.00;94083.34;623707;220;32010;-70
2021/01/21 02:47:27;;;;;;;5.20;4.70;;;-2.50;1.40;;;-2.06;98.84;94083.14;629683;225;25619;-70
2021/01/21 02:49:56;;;;;;;4.93;4.50;;;-2.90;1.40;;;-2.12;98.20;94085.08;630466;225;27004;-71
2021/01/21 02:52:28;;;;;;;5.40;4.90;;;-3.20;1.40;;;-2.23;97.19;94082.75;637957;223;24547;-70
2021/01/21 02:55:12;;;;;;;6.37;4.50;;;-3.30;1.40;;;-2.32;97.76;94079.08;628760;225;24626;-70
2021/01/21 02:58:07;;;;;;;6.18;4.43;;;-3.30;1.40;;;-2.24;97.76;94083.52;646987;216;31605;-70
2021/01/21 03:00:36;;;;;;;9.50;5.20;;;-3.30;1.40;;;-2.20;97.87;94085.16;640160;221;23534;-70
2021/01/21 03:03:05;;;;;;;4.30;3.90;;;-3.20;1.40;;;-2.21;98.38;94095.72;637513;220;43217;-70
2021/01/21 03:05:34;;;;;;;5.17;4.53;;;-3.10;1.40;;;-2.16;99.49;94100.52;638010;220;23562;-70
2021/01/21 03:08:03;;;;;;;6.00;4.60;;;-3.00;1.40;;;-2.11;98.49;94100.80;635141;221;31740;-70
2021/01/21 03:10:32;;;;;;;6.93;6.17;;;-3.00;1.40;;;-2.10;98.79;94098.41;640357;221;28945;-70
2021/01/21 03:13:02;;;;;;;4.80;4.40;;;-3.00;1.40;;;-1.98;97.41;94092.12;636979;221;31662;-70
2021/01/21 03:15:31;;;;;;;5.77;4.87;;;-3.00;1.40;;;-2.09;99.26;94093.59;642140;220;23476;-70
2021/01/21 03:18:00;;;;;;;6.72;5.22;;;-3.00;1.40;;;-2.10;99.33;94093.37;634823;221;31778;-70
2021/01/21 03:20:29;;;;;;;5.93;5.17;;;-3.00;1.40;;;-1.98;99.54;94097.85;638754;221;25555;-70
2021/01/21 03:22:59;;;;;;;10.17;6.17;;;-2.90;1.40;;;-2.01;100.00;94099.65;641359;221;24543;-70
2021/01/21 03:25:28;;;;;;;6.20;5.60;;;-2.80;1.40;;;-1.77;98.52;94097.84;635382;221;31811;-71
2021/01/21 03:27:57;;;;;;;7.47;6.77;;;-2.60;1.40;;;-1.60;97.54;94085.27;636289;221;42335;-71
2021/01/21 03:30:26;;;;;;;6.83;6.20;;;-2.40;1.40;;;-1.67;99.53;94084.94;639569;221;24551;-71
2021/01/21 03:32:59;;;;;;;7.85;6.30;;;-2.40;1.40;;;-1.49;97.81;94093.27;635161;221;31689;-71
2021/01/21 03:35:24;;;;;;;8.37;6.30;;;-2.40;1.40;;;-1.49;98.50;94104.58;647834;219;29838;-70
2021/01/21 03:37:53;;;;;;;7.10;6.40;;;-2.40;1.40;;;-1.44;98.83;94106.48;647288;220;24485;-70
2021/01/21 03:40:22;;;;;;;7.25;6.07;;;-2.10;1.40;;;-1.38;97.24;94112.66;635951;220;31927;-70
2021/01/21 03:42:51;;;;;;;8.73;7.45;;;-2.20;1.40;;;-1.57;98.07;94106.48;663991;211;31455;-70
2021/01/21 03:45:20;;;;;;;6.87;6.17;;;-2.30;1.40;;;-1.60;99.72;94106.42;653132;216;23543;-70
2021/01/21 03:47:49;;;;;;;8.20;6.77;;;-2.30;1.40;;;-1.45;98.64;94099.46;655574;215;24483;-71
2021/01/21 03:52:53;;;;;;;7.15;6.45;;;-2.30;1.40;;;-1.20;95.79;94094.05;648113;216;42141;-70
2021/01/21 03:55:22;;;;;;;11.40;7.67;;;-2.20;1.40;;;-1.35;98.40;94095.12;642944;220;23501;-70
2021/01/21 03:57:51;;;;;;;7.80;7.10;;;-2.20;1.40;;;-1.32;98.56;94094.80;644038;221;24547;-70
2021/01/21 04:00:20;;;;;;;9.13;6.10;;;-2.20;1.40;;;-1.30;98.52;94090.48;641284;220;31913;-70
2021/01/21 04:02:49;;;;;;;6.30;5.60;;;-2.10;1.40;;;-1.34;99.14;94093.90;640106;221;24583;-71
2021/01/21 04:05:19;;;;;;;8.52;6.50;;;-2.00;1.40;;;-1.38;99.72;94089.38;634649;220;31820;-71
2021/01/21 04:07:48;;;;;;;7.30;6.60;;;-2.00;1.40;;;-1.39;100.00;94089.85;640448;220;23480;-71
2021/01/21 04:10:17;;;;;;;7.40;6.70;;;-2.00;1.40;;;-1.37;100.00;94090.91;640892;221;24530;-70
2021/01/21 04:12:46;;;;;;;7.05;6.10;;;-2.00;1.40;;;-1.27;99.24;94091.28;634499;220;31799;-70
2021/01/21 04:15:15;;;;;;;7.50;5.80;;;-1.90;1.40;;;-1.15;99.21;94096.02;639032;221;23484;-71
2021/01/21 04:17:44;;;;;;;6.10;5.50;;;-1.70;1.40;;;-1.19;98.80;94098.83;641338;221;24541;-70
2021/01/21 04:20:13;;;;;;;5.97;5.37;;;-1.70;1.40;;;-1.19;98.79;94091.66;637297;221;25986;-70
2021/01/21 04:22:42;;;;;;;6.87;5.78;;;-1.80;1.40;;;-1.16;98.09;94088.36;635759;221;31718;-71
2021/01/21 04:25:12;;;;;;;5.00;4.60;;;-1.80;1.40;;;-1.07;97.58;94085.41;635739;220;31669;-71
2021/01/21 04:27:41;;;;;;;6.30;4.40;;;-1.70;1.40;;;-0.90;95.70;94081.02;639714;221;35449;-71
2021/01/21 04:30:11;;;;;;;4.62;3.95;;;-1.50;1.40;;;-0.84;94.92;94090.11;630681;221;31747;-71
2021/01/21 04:32:40;;;;;;;4.73;4.33;;;-1.40;1.40;;;-0.90;94.79;94088.05;640751;221;23476;-71
2021/01/21 04:35:10;;;;;;;3.87;3.57;;;-1.50;1.40;;;-0.97;94.95;94091.95;638818;221;24878;-70
2021/01/21 04:37:39;;;;;;;4.80;4.40;;;-1.70;1.40;;;-1.04;94.89;94089.98;642495;221;24526;-70
2021/01/21 04:40:09;;;;;;;5.10;3.75;;;-1.80;1.40;;;-1.20;93.43;94103.14;638996;220;31986;-70
2021/01/21 04:42:38;;;;;;;5.15;4.65;;;-2.10;1.40;;;-1.23;93.32;94104.09;636412;221;32006;-71
2021/01/21 04:45:08;;;;;;;5.10;4.70;;;-2.20;1.40;;;-1.25;94.28;94096.48;628038;222;25843;-70
2021/01/21 04:47:37;;;;;;;5.17;4.77;;;-2.20;1.40;;;-1.32;94.89;94091.14;627618;224;24753;-70
2021/01/21 04:50:07;;;;;;;5.60;5.10;;;-2.20;1.40;;;-1.37;95.23;94086.45;623427;225;31921;-71
2021/01/21 04:52:36;;;;;;;9.13;5.67;;;-2.40;1.40;;;-1.44;96.07;94090.42;629067;224;25605;-71
2021/01/21 04:55:09;;;;;;;5.40;4.90;;;-2.40;1.40;;;-1.48;96.39;94092.81;644130;220;24512;-71
2021/01/21 04:57:49;;;;;;;6.50;5.35;;;-2.50;1.40;;;-1.45;95.76;94092.45;649739;215;31569;-71
2021/01/21 05:00:19;;;;;;;5.75;4.97;;;-2.50;1.40;;;-1.48;96.68;94090.16;650668;216;31758;-70
2021/01/21 05:02:48;;;;;;;6.20;5.60;;;-2.50;1.40;;;-1.58;98.03;94096.48;651949;215;31588;-70
2021/01/21 05:05:17;;;;;;;5.70;5.20;;;-2.50;1.40;;;-1.53;98.38;94086.51;660213;215;24471;-71
2021/01/21 05:07:46;;;;;;;6.40;5.10;;;-2.50;1.40;;;-1.35;96.88;94088.90;651586;215;31589;-71
2021/01/21 05:10:15;;;;;;;6.03;5.10;;;-2.40;1.40;;;-1.39;97.72;94093.57;656014;215;27757;-70
2021/01/21 05:12:44;;;;;;;5.80;5.20;;;-2.20;1.40;;;-1.22;96.71;94091.97;630652;225;24570;-71
2021/01/21 05:15:13;;;;;;;5.72;5.22;;;-2.20;1.40;;;-1.30;97.03;94099.35;635290;222;31799;-71
2021/01/21 05:17:42;;;;;;;5.50;5.00;;;-2.10;1.40;;;-1.16;97.00;94097.40;651920;215;31543;-70
2021/01/21 05:20:11;;;;;;;7.37;4.87;;;-2.10;1.40;;;-1.23;97.77;94096.75;630930;224;25853;-69
2021/01/21 05:22:40;;;;;;;5.50;4.93;;;-2.10;1.40;;;-1.11;97.45;94102.37;658999;215;26586;-70
2021/01/21 05:25:10;;;;;;;7.00;5.57;;;-2.00;1.40;;;-0.94;95.61;94099.23;627923;225;24557;-71
2021/01/21 05:30:20;;;;;;;4.47;4.07;;;-2.00;1.40;;;-1.08;94.70;94095.73;648016;212;31798;-71
2021/01/21 05:32:50;;;;;;;7.30;5.97;;;-2.10;1.40;;;-1.25;95.12;94094.95;640601;221;25596;-72
2021/01/21 05:35:53;;;;;;;6.62;5.35;;;-2.30;1.40;;;-1.31;96.15;94096.93;651312;216;31671;-70
2021/01/21 05:38:22;;;;;;;6.50;5.80;;;-2.30;1.40;;;-1.46;97.49;94096.33;640316;220;24594;-70
2021/01/21 05:40:52;;;;;;;7.20;6.10;;;-2.20;1.40;;;-1.50;98.10;94096.23;635590;221;31884;-70
2021/01/21 05:43:20;;;;;;;7.87;5.47;;;-2.20;1.40;;;-1.42;97.92;94101.48;639640;220;23519;-71
2021/01/21 05:45:50;;;;;;;5.17;4.77;;;-2.30;1.40;;;-1.38;98.33;94104.42;628002;225;24717;-71
2021/01/21 05:48:19;;;;;;;6.57;5.77;;;-2.10;1.40;;;-1.32;98.67;94099.22;628065;225;24607;-71
2021/01/21 05:50:48;;;;;;;6.55;5.85;;;-2.00;1.40;;;-1.24;98.45;94096.22;626103;225;31976;-71
2021/01/21 05:53:17;;;;;;;6.50;5.90;;;-1.90;1.40;;;-1.35;99.22;94094.00;627467;224;23524;-71
2021/01/21 05:55:46;;;;;;;7.07;6.10;;;-2.00;1.40;;;-1.36;99.78;94091.50;628300;225;24576;-71
2021/01/21 05:58:15;;;;;;;7.13;5.50;;;-2.10;1.40;;;-1.30;100.00;94089.67;627087;224;30962;-71
2021/01/21 06:00:44;;;;;;;5.70;5.20;;;-2.00;1.40;;;-1.25;100.00;94091.97;628979;224;25641;-71
2021/01/21 06:03:13;;;;;;;5.62;5.12;;;-1.90;1.40;;;-1.07;98.88;94097.53;638884;220;31831;-71
2021/01/21 06:05:42;;;;;;;8.00;7.20;;;-1.90;1.40;;;-0.92;98.38;94099.11;657749;215;23443;-71
2021/01/21 06:08:11;;;;;;;7.00;6.40;;;-1.70;1.40;;;-0.78;97.36;94102.03;635027;224;24851;-71
2021/01/21 06:10:40;;;;;;;6.93;6.33;;;-1.60;1.40;;;-0.70;96.11;94108.59;661107;215;24481;-72
2021/01/21 06:13:09;;;;;;;8.98;7.28;;;-1.50;1.40;;;-0.61;95.70;94101.56;650021;215;31618;-71
2021/01/21 06:15:38;;;;;;;8.03;7.30;;;-1.50;1.40;;;-0.51;94.77;94100.56;655405;215;28747;-71
2021/01/21 06:18:07;;;;;;;7.47;6.77;;;-1.40;1.40;;;-0.52;96.16;94102.16;655549;216;24559;-71
2021/01/21 06:20:37;;;;;;;9.63;7.20;;;-1.40;1.40;;;-0.48;95.92;94094.17;652836;216;24467;-71
2021/01/21 06:23:06;;;;;;;5.77;5.27;;;-1.40;1.40;;;-0.51;95.32;94102.31;655007;215;24480;-71
2021/01/21 06:25:35;;;;;;;6.37;5.23;;;-1.50;1.40;;;-0.73;95.90;94107.00;639607;223;25111;-71
2021/01/21 06:28:04;;;;;;;8.83;5.90;;;-1.70;1.40;;;-0.87;96.33;94104.27;655611;216;24497;-71
2021/01/21 06:30:33;;;;;;;4.70;4.30;;;-1.80;1.40;;;-1.08;98.31;94097.75;636158;225;24620;-71
2021/01/21 06:33:06;;;;;;;6.10;5.60;;;-1.90;1.40;;;-1.16;99.57;94103.35;658870;215;25144;-72
2021/01/21 06:35:36;;;;;;;4.70;4.30;;;-2.00;1.40;;;-0.99;98.80;94097.64;627915;224;31925;-71
2021/01/21 06:38:06;;;;;;;6.53;5.73;;;-1.80;1.40;;;-0.86;98.94;94092.94;655495;215;23473;-71
2021/01/21 06:40:35;;;;;;;5.53;4.80;;;-1.60;1.40;;;-0.82;98.67;94097.51;656109;215;24482;-71
2021/01/21 06:43:06;;;;;;;6.17;5.67;;;-1.50;1.40;;;-0.67;98.11;94090.81;629523;225;24568;-71
2021/01/21 06:45:35;;;;;;;5.80;5.20;;;-1.40;1.40;;;-0.62;97.07;94094.59;654714;215;24475;-71
2021/01/21 06:48:05;;;;;;;5.00;4.50;;;-1.50;1.40;;;-0.64;96.90;94089.38;656175;215;29772;-71
2021/01/21 06:50:34;;;;;;;5.40;4.90;;;-1.50;1.40;;;-0.58;95.79;94086.02;629515;225;24549;-71
2021/01/21 06:53:04;;;;;;;5.50;5.00;;;-1.60;1.40;;;-0.59;96.14;94092.45;657905;215;32075;-70
2021/01/21 06:58:09;;;;;;;7.40;6.70;;;-1.60;1.40;;;-0.51;97.07;94085.98;647483;215;31622;-71
2021/01/21 07:00:38;;;;;;;8.52;6.50;;;-1.50;1.40;;;-0.28;95.36;94091.97;634685;220;32121;-71
2021/01/21 07:03:07;;;;;;;6.10;5.37;;;-1.30;1.40;;;-0.24;95.05;94085.52;641628;221;23797;-71
2021/01/21 07:05:36;;;;;;;7.10;6.50;;;-1.20;1.40;;;-0.27;96.69;94089.73;640854;221;24541;-70
2021/01/21 07:08:05;;;;;;;5.37;4.85;;;-1.20;1.40;;;0.01;94.60;94091.08;634552;220;31821;-72
2021/01/21 07:10:40;;;;;;;3.30;2.50;;;-1.10;1.40;;;0.32;92.79;94091.45;637349;221;31803;-72
2021/01/21 07:13:17;;;;;;;4.73;3.40;;;-0.30;1.40;;;0.71;91.01;94092.72;642258;220;23518;-72
2021/01/21 07:15:49;;;;;;;2.90;2.70;;;0.20;1.40;;;0.73;90.58;94092.28;645399;220;24513;-72
2021/01/21 07:18:19;;;;;;;3.00;2.40;;;0.10;1.40;;;1.39;88.68;94092.31;671068;211;29747;-71
2021/01/21 07:21:07;;;;;;;3.60;2.60;;;0.90;1.40;;;1.58;87.62;94092.80;667673;211;31429;-71
2021/01/21 07:23:43;;;;;;;3.13;2.93;;;0.80;1.40;;;1.51;87.57;94096.72;667402;211;23470;-72
2021/01/21 07:26:32;;;;;;;1.77;1.67;;;0.70;1.40;;;1.73;87.64;94097.06;671068;211;24414;-72
2021/01/21 07:29:19;;;;;;;1.90;1.20;;;1.50;1.40;;;3.62;77.05;94094.80;645426;216;31611;-73
2021/01/21 07:32:06;;;;;;;1.63;1.50;;;3.40;1.40;;;4.34;71.93;94092.16;642453;220;23579;-73
2021/01/21 07:34:41;;;;;;;2.67;1.20;;;4.20;1.40;;;4.74;69.46;94090.27;654459;216;25023;-72
2021/01/21 07:37:22;;;;;;;2.60;0.80;;;4.50;1.40;;;5.08;67.16;94095.59;636158;220;31765;-72
2021/01/21 07:40:07;;;;;;;1.43;1.33;;;4.80;1.40;;;5.56;64.53;94100.31;659925;211;23460;-74
2021/01/21 07:42:51;;;;;;;1.90;1.80;;;5.20;1.40;;;5.70;63.90;94102.25;630456;224;24667;-73
2021/01/21 07:45:23;;;;;;;1.27;0.90;;;5.30;1.40;;;5.54;67.58;94110.63;635138;224;24591;-74
2021/01/21 07:47:52;;;;;;;1.47;1.13;;;4.80;1.40;;;5.73;64.17;94112.50;655627;215;24454;-72
2021/01/21 07:50:30;;;;;;;1.27;1.10;;;5.00;1.40;;;5.91;64.84;94105.75;657771;215;24438;-72
2021/01/21 07:52:59;;;;;;;1.50;1.30;;;5.10;1.40;;;5.96;68.61;94104.42;656365;215;25582;-74
2021/01/21 07:55:30;;;;;;;2.00;1.30;;;4.70;1.40;;;5.70;69.46;94099.61;656171;215;27752;-72
2021/01/21 07:58:14;;;;;;;3.50;1.50;;;4.00;1.40;;;5.69;68.17;94103.94;656244;215;24458;-72
2021/01/21 08:00:43;;;;;;;5.83;1.93;;;4.30;1.40;;;6.21;62.77;94095.20;657324;215;24477;-73
2021/01/21 08:03:12;;;;;;;1.30;1.20;;;5.30;1.40;;;6.56;63.06;94099.48;656295;215;24488;-72
2021/01/21 08:05:41;;;;;;;3.33;1.10;;;5.80;1.40;;;6.64;64.99;94100.05;657495;215;25547;-72
2021/01/21 08:08:11;;;;;;;1.10;1.07;;;5.40;1.40;;;6.11;64.17;94090.51;655275;215;24931;-72
2021/01/21 08:10:40;;;;;;;1.53;1.43;;;5.10;1.40;;;6.61;60.45;94085.27;655070;215;25157;-72
2021/01/21 08:13:09;;;;;;;1.20;1.10;;;5.90;1.40;;;6.99;57.68;94081.78;658300;216;24435;-72
2021/01/21 08:15:38;;;;;;;1.00;1.00;;;6.40;1.40;;;7.31;56.66;94092.92;653260;215;25645;-73
2021/01/21 08:18:07;;;;;;;3.43;1.63;;;6.70;1.40;;;7.35;60.47;94090.82;653657;215;24594;-72
2021/01/21 08:20:36;;;;;;;2.40;1.17;;;6.20;1.40;;;7.18;58.20;94091.04;655173;216;24509;-72
2021/01/21 08:23:05;;;;;;;3.00;1.10;;;6.20;1.40;;;7.30;56.86;94081.47;649427;215;31536;-73
2021/01/21 08:25:41;;;;;;;1.90;1.30;;;6.40;1.40;;;7.53;55.83;94082.66;655344;215;23433;-72
2021/01/21 08:28:10;;;;;;;3.40;1.30;;;6.80;1.40;;;7.75;54.11;94080.07;656143;215;24575;-73
2021/01/21 08:30:39;;;;;;;2.30;1.10;;;7.10;1.40;;;7.97;53.05;94084.08;629372;224;24601;-72
2021/01/21 08:33:20;;;;;;;3.20;0.90;;;7.30;1.40;;;8.09;54.13;94082.67;649165;215;32025;-72
2021/01/21 08:35:51;;;;;;;0.80;0.80;;;7.30;1.40;;;8.23;51.89;94079.81;635486;225;23519;-71
2021/01/21 08:38:22;;;;;;;2.20;0.80;;;7.60;1.40;;;8.43;51.31;94075.55;651630;215;31524;-73
2021/01/21 08:40:51;;;;;;;1.40;0.70;;;7.80;1.40;;;8.61;51.27;94070.33;654695;215;31522;-74
2021/01/21 08:43:20;;;;;;;1.07;0.80;;;8.00;1.40;;;8.82;49.23;94070.70;643560;220;23466;-73
2021/01/21 08:45:49;;;;;;;0.77;0.77;;;8.20;1.40;;;9.00;48.79;94063.95;657344;215;24457;-73
2021/01/21 08:48:29;;;;;;;2.70;0.60;;;8.30;1.40;;;9.15;48.30;94067.56;641660;220;25639;-73
2021/01/21 08:50:58;;;;;;;0.90;0.90;;;8.50;1.40;;;9.25;47.71;94059.06;643580;220;24476;-73
2021/01/21 08:53:28;;;;;;;0.87;0.87;;;8.60;1.40;;;9.28;47.23;94058.41;635100;225;24527;-73
2021/01/21 08:55:57;;;;;;;0.90;0.40;;;8.60;1.40;;;9.25;47.49;94061.09;648822;215;31514;-73
2021/01/21 08:58:30;;;;;;;0.73;0.70;;;8.60;1.40;;;9.17;47.37;94063.21;641469;220;23714;-73
2021/01/21 09:01:07;;;;;;;1.23;0.97;;;8.50;1.40;;;9.24;47.18;94072.08;640911;220;24485;-72
2021/01/21 09:03:46;;;;;;;0.70;0.67;;;8.60;1.40;;;9.32;46.65;94069.13;655726;215;24495;-73
2021/01/21 09:06:14;;;;;;;0.93;0.93;;;8.80;1.40;;;9.46;46.62;94068.95;644588;220;24471;-73
2021/01/21 09:08:56;;;;;;;0.80;0.80;;;9.00;1.40;;;10.39;45.24;94070.35;655650;215;24470;-73
2021/01/21 09:11:33;;;;;;;1.03;1.00;;;10.80;1.40;;;12.66;42.19;94071.47;653993;215;24448;-71
2021/01/21 09:14:02;;;;;;;0.97;0.80;;;12.90;1.40;;;13.78;39.08;94068.70;655150;215;24493;-73
2021/01/21 09:16:44;;;;;;;0.80;0.80;;;12.90;1.40;;;13.52;39.71;94070.30;655323;216;25555;-72
2021/01/21 09:19:15;;;;;;;2.40;1.00;;;12.40;1.40;;;13.35;38.29;94073.29;653557;215;23460;-72
2021/01/21 09:24:31;;;;;;;1.55;0.50;;;12.10;1.40;;;13.30;38.14;94085.66;643481;215;31778;-70
2021/01/21 09:27:15;;;;;;;0.73;0.73;;;12.00;1.40;;;13.32;38.40;94086.93;640650;220;22528;-70
2021/01/21 09:30:02;;;;;;;1.12;0.40;;;12.20;1.40;;;12.34;42.36;94082.52;636645;220;31701;-70
2021/01/21 09:32:32;;;;;;;0.60;0.60;;;10.80;1.40;;;12.83;39.24;94088.89;653999;216;23586;-69
2021/01/21 09:35:07;;;;;;;0.80;0.55;;;12.80;1.40;;;13.50;37.22;94086.32;645552;215;31476;-70
2021/01/21 09:37:36;;;;;;;1.77;1.10;;;12.90;1.40;;;13.87;36.50;94092.38;643118;220;22634;-69
2021/01/21 09:40:07;;;;;;;1.77;0.80;;;13.60;1.40;;;13.60;36.19;94094.70;636538;221;32693;-69
2021/01/21 09:42:36;;;;;;;1.92;0.60;;;12.50;1.40;;;13.34;36.58;94103.59;635262;221;31816;-69
2021/01/21 09:45:07;;;;;;;0.70;0.70;;;12.60;1.40;;;12.99;36.63;94101.96;642566;221;22497;-70
2021/01/21 09:47:36;;;;;;;0.90;0.63;;;11.90;1.40;;;12.88;37.04;94104.97;642394;221;23541;-70
2021/01/21 09:50:07;;;;;;;1.20;0.73;;;12.00;1.40;;;12.73;37.38;94114.23;640213;221;24537;-70
2021/01/21 09:52:36;;;;;;;1.67;0.52;;;11.80;1.40;;;12.62;38.28;94108.47;634995;221;31761;-70
2021/01/21 09:55:06;;;;;;;1.37;0.60;;;12.20;1.40;;;14.52;35.29;94105.45;638990;221;23981;-70
2021/01/21 09:57:39;;;;;;;1.03;0.80;;;14.30;1.40;;;16.37;33.65;94107.86;640450;221;23567;-70
2021/01/21 10:00:08;;;;;;;1.03;0.73;;;15.90;1.40;;;16.78;33.36;94106.61;642094;221;23535;-70
2021/01/21 10:02:37;;;;;;;1.00;0.90;;;15.70;1.40;;;16.74;33.49;94111.16;642972;221;23514;-71
2021/01/21 10:07:41;;;;;;;2.03;0.43;;;17.10;1.40;;;18.84;31.02;94113.17;640494;217;31596;-70
2021/01/21 10:10:09;;;;;;;3.23;0.80;;;16.10;1.40;;;18.22;33.51;94113.42;639565;220;22505;-70
2021/01/21 10:12:38;;;;;;;1.03;0.80;;;15.70;1.40;;;18.86;29.88;94118.80;636590;220;29921;-70
2021/01/21 10:15:08;;;;;;;0.90;0.60;;;17.20;1.40;;;17.21;31.91;94121.74;638790;221;24644;-70
2021/01/21 10:17:37;;;;;;;2.07;0.90;;;15.80;1.40;;;19.05;30.22;94125.84;637351;221;24532;-71
2021/01/21 10:20:07;;;;;;;1.90;0.70;;;17.60;1.40;;;17.98;29.13;94116.53;631082;220;31649;-70
2021/01/21 10:22:36;;;;;;;0.80;0.70;;;16.80;1.40;;;19.81;30.38;94115.41;637247;221;22511;-71
2021/01/21 10:25:06;;;;;;;1.80;1.20;;;17.00;1.40;;;21.04;28.75;94115.94;639425;221;23498;-70
2021/01/21 10:27:35;;;;;;;2.03;0.87;;;18.60;1.40;;;21.66;29.81;94112.61;639005;221;25716;-71
2021/01/21 10:30:06;;;;;;;4.53;1.20;;;19.30;1.40;;;25.68;31.41;94114.03;637402;221;23527;-71
2021/01/21 10:32:35;;;;;;;3.33;1.00;;;21.00;1.40;;;28.04;27.47;94107.14;639293;221;24572;-70
2021/01/21 10:35:05;;;;;;;3.57;1.17;;;22.10;1.40;;;27.78;25.96;94111.48;642770;221;26550;-71
2021/01/21 10:37:34;;;;;;;2.80;1.00;;;21.90;1.40;;;27.78;25.00;94106.30;639163;221;24561;-71
2021/01/21 10:40:07;;;;;;;1.27;0.80;;;22.30;1.40;;;26.85;20.59;94110.87;641475;221;23533;-71
2021/01/21 10:42:35;;;;;;;1.20;1.00;;;21.20;1.40;;;25.96;23.04;94110.39;637789;221;23596;-71
2021/01/21 10:45:04;;;;;;;3.63;1.47;;;20.90;1.40;;;25.52;26.06;94105.83;638773;221;25008;-70
2021/01/21 10:47:34;;;;;;;3.33;1.58;;;20.20;1.40;;;25.38;22.54;94103.88;632509;221;42561;-70
2021/01/21 10:50:03;;;;;;;6.57;2.20;;;19.70;1.40;;;27.28;24.66;94101.32;636734;221;22543;-71
2021/01/21 10:52:32;;;;;;;2.73;2.47;;;21.00;1.40;;;29.20;26.58;94095.03;640735;221;23570;-70
2021/01/21 10:55:01;;;;;;;2.07;1.90;;;20.20;1.40;;;29.81;26.37;94094.53;639859;221;23560;-71
2021/01/21 10:57:30;;;;;;;3.20;1.77;;;20.50;1.40;;;31.82;23.29;94096.25;633407;221;32042;-71
2021/01/21 10:59:59;;;;;;;;;;;21.90;1.40;;;32.88;21.54;94089.63;640287;221;24929;-71